Terminal Aerodrome Forecast
Issued by NWS

Home | Current Version | Previous Version | Text Only | Print | Product List | Glossary On
Versions: 1 2 3 4 5 6 7 8 9 10 11 12
000
FTUS45 KRIW 041100
TAFJAC
TAF
KJAC 041131Z 0412/0512 VRB05KT P6SM VCFG SCT005
     FM041500 18005KT P6SM FEW080
     FM042000 23007KT P6SM VCSH SCT080
     FM050200 VRB05KT P6SM SCT100
     FM050600 35006KT P6SM SCT120 BKN200
      AMD LTD TO CLD VIS AND WIND=

USA.gov is the U.S. government's official web portal to all federal, state and local government web resources and services.